Latest Coastal Weather Observations for Port Macquarie Airport

IDN60701

Issued at 5:22 pm EDT Monday 26 January 2015 (issued every 10 minutes, with the page automatically refreshed every 10 minutes)

About coastal observations | Map of coastal stations | Coastal observations for NSW | Marine services | Other Formats
Station Details ID: 060139 Name: PORT MACQUARIE AIRPORT AWS Lat: -31.43 Lon: 152.87 Height: 4.2 m
Data from the previous 72 hours. | See also: Recent months at Port Macquarie Airport
Date/Time
EDT
Temp

°C
Wind Pressure Rain
since 9am
mm
Weather Cloud Vis
km
Sea
Height
m
Swell
Dir
 
Speed
knots
Gust
knots
hPa Trend Height
m
Period
s
Dir
26/05:12pm 23.2 ESE 8 12 1008.9 - 150.4 - Partly cloudy 7 - - - -
26/05:00pm 23.5 SSE 7 12 1009.1 - 149.8 - Partly cloudy 5 - - - -
26/04:51pm 23.5 SE 8 11 1009.0 - 149.0 - Partly cloudy 5 - - - -
26/04:48pm 23.4 ESE 8 12 1009.0 - 148.4 - Partly cloudy 6 - - - -
26/04:33pm 23.1 SE 5 11 1009.1 - 147.8 - Partly cloudy 8 - - - -
26/04:30pm 23.0 SSE 5 8 1009.1 - 147.8 - Partly cloudy 7 - - - -
26/04:00pm 22.9 S 7 14 1009.4 - 143.6 - Partly cloudy 0.7 - - - -
26/03:30pm 23.2 SW 6 11 1009.3 - 116.8 - Partly cloudy 1 - - - -
26/03:00pm 23.3 NNE 11 18 1009.4 - 95.0 Rain Cloudy 3 - - - -
26/02:53pm 23.3 NE 9 18 1009.3 - 92.2 - Partly cloudy 3 - - - -
26/02:30pm 23.6 NNW 5 8 1009.6 - 73.6 - Partly cloudy 0.3 - - - -
26/02:00pm 24.0 SE 7 16 1009.4 - 33.6 - Partly cloudy 0.7 - - - -
26/01:54pm 24.0 SSW 9 16 1009.3 - 27.4 - Partly cloudy 2 - - - -
26/01:53pm 24.0 SSW 8 16 1009.3 - 26.4 - Partly cloudy 2 - - - -
26/01:49pm 24.1 S 5 16 1009.1 - 22.0 - Partly cloudy 5 - - - -
26/01:38pm 24.4 SE 4 7 1009.4 - 20.2 - Partly cloudy 8 - - - -
26/01:30pm 24.4 SE 5 10 1009.4 - 20.2 - Partly cloudy 6 - - - -
26/01:16pm 24.4 SE 9 15 1009.6 - 18.6 - Partly cloudy 5 - - - -
26/01:00pm 25.5 SE 8 13 1009.6 - 17.6 - Partly cloudy 9 - - - -
26/12:30pm 24.5 SSE 9 13 1010.0 - 17.4 - Partly cloudy 9 - - - -
26/12:15pm 24.4 S 9 14 1010.2 - 17.4 - Partly cloudy 9 - - - -
26/12:00pm 24.8 S 7 11 1010.1 - 17.0 Rain Cloudy 4 - - - -
26/11:55am 24.5 S 7 11 1010.2 - 16.4 - Partly cloudy 5 - - - -
26/11:47am 25.5 S 7 9 1010.3 - 15.0 - Partly cloudy 10 - - - -
26/11:30am 25.3 S 6 8 1010.1 - 15.0 - Partly cloudy 10 - - - -
26/11:29am 25.1 S 6 8 1010.1 - 15.0 - Partly cloudy 9 - - - -
26/11:12am 24.7 SSW 6 8 1010.0 - 15.0 - Partly cloudy 8 - - - -
26/11:11am 25.0 S 7 9 1010.0 - 15.0 - Partly cloudy 8 - - - -
26/11:07am 25.0 S 8 11 1010.1 - 15.0 - Partly cloudy 8 - - - -
26/11:06am 25.3 S 8 11 1010.1 - 15.0 - Partly cloudy 8 - - - -
26/11:00am 24.9 SSE 9 13 1010.3 - 15.0 - Partly cloudy 8 - - - -
26/10:34am 24.1 SSE 10 15 1010.3 - 15.0 - Partly cloudy 10 - - - -
26/10:30am 24.2 S 11 15 1010.3 - 15.0 - Partly cloudy 9 - - - -
26/10:18am 23.9 S 6 9 1010.4 - 14.6 - Partly cloudy 5 - - - -
26/10:02am 23.9 SSE 5 7 1010.3 - 13.8 - Partly cloudy 10 - - - -
26/10:01am 23.8 S 5 6 1010.3 - 13.8 - Partly cloudy 10 - - - -
26/10:00am 23.9 S 5 6 1010.3 - 13.8 - Partly cloudy 10 - - - -
26/09:49am 23.5 S 7 11 1009.9 - 13.8 - Partly cloudy 10 - - - -
26/09:44am 23.3 SSW 7 11 1010.0 - 13.8 - Partly cloudy 9 - - - -
26/09:43am 23.3 SSW 7 11 1010.1 - 13.8 - Partly cloudy 8 - - - -
26/09:30am 23.0 S 9 13 1009.8 - 12.4 - Partly cloudy 1 - - - -
26/09:19am 24.1 WSW 6 17 1009.6 - 2.8 - Cloudy 4 - - - -
26/09:18am 24.4 SW 11 17 1009.5 - 1.8 - Cloudy 5 - - - -
26/09:17am 24.7 W 3 15 1009.5 - 1.0 - Cloudy 5 - - - -
26/09:13am 25.3 NNW 1 5 1009.3 - 0.6 - Partly cloudy 7 - - - -
26/09:00am 25.1 ENE 1 4 1009.3 - 6.2 Rain Cloudy 2 - - - -
26/08:34am 25.0 E 5 9 1009.1 - 2.6 - Partly cloudy 5 - - - -
26/08:30am 25.2 SSE 5 7 1009.0 - 1.4 - Partly cloudy 7 - - - -
26/08:00am 25.2 WSW 5 7 1008.6 - 0.8 - Partly cloudy 10 - - - -
26/07:30am 25.3 SW 6 8 1008.5 - 0.8 - Partly cloudy 10 - - - -
26/07:00am 25.0 - 5 6 1008.3 - 0.8 - - 10 - - - -
26/06:30am 24.3 SW 8 9 1007.9 - 0.8 - Partly cloudy 10 - - - -
26/06:00am 24.1 WSW 5 7 1007.7 - 0.8 - Cloudy 10 - - - -
26/05:30am 24.0 WSW 7 9 1007.3 - 0.8 - - 10 - - - -
26/05:00am 24.1 SW 8 11 1006.8 - 0.8 - Partly cloudy 10 - - - -
26/04:30am 23.5 SW 3 5 1006.8 - 0.8 - Partly cloudy 10 - - - -
26/04:00am 23.5 SW 5 7 1006.5 - 0.8 - Partly cloudy 10 - - - -
26/03:30am 23.0 WSW 6 8 1006.1 - 0.8 - Partly cloudy 10 - - - -
26/03:00am 22.7 SW 5 6 1005.6 - 0.8 - - 10 - - - -
26/02:30am 22.7 SW 5 6 1005.6 - 0.8 - - 10 - - - -
26/02:00am 22.6 SSW 4 5 1005.6 - 0.8 - - 10 - - - -
26/01:30am 22.8 SSW 4 5 1005.5 - 0.8 - - 10 - - - -
26/01:00am 23.2 CALM 0 0 1005.4 - 0.8 - - 10 - - - -
26/12:30am 23.6 CALM 0 0 1005.6 - 0.8 - - 10 - - - -
26/12:00am 23.9 NNW 4 6 1005.8 - 0.8 - - 10 - - - -
 
Date/Time
EDT
Temp

°C
Wind Pressure Rain
since 9am
mm
Weather Cloud Vis
km
Sea
Height
m
Swell
Dir
 
Speed
knots
Gust
knots
hPa Trend Height
m
Period
s
Dir
25/11:30pm 24.1 N 4 5 1005.9 - 0.8 - - 10 - - - -
25/11:00pm 23.6 CALM 0 0 1005.9 - 0.8 - - 10 - - - -
25/10:30pm 24.2 CALM 0 0 1005.6 - 0.8 - - 10 - - - -
25/10:00pm 24.2 CALM 0 0 1005.5 - 0.8 - - 10 - - - -
25/09:30pm 25.1 CALM 0 0 1005.2 - 0.8 - - 10 - - - -
25/09:00pm 25.4 CALM 0 0 1004.8 - 0.8 - - 10 - - - -
25/08:30pm 27.3 N 4 5 1004.7 - 0.8 - - 10 - - - -
25/08:00pm 28.3 N 5 6 1004.4 - 0.8 - - 10 - - - -
25/07:30pm 29.1 NNE 4 6 1004.0 - 0.8 - - 10 - - - -
25/07:00pm 29.6 NE 5 7 1003.5 - 0.8 - - 10 - - - -
25/06:30pm 30.1 ENE 5 8 1003.3 - 0.8 - - 10 - - - -
25/06:00pm 30.2 E 6 8 1003.2 - 0.8 - - 10 - - - -
25/05:30pm 30.3 NE 6 8 1003.1 - 0.8 - - 10 - - - -
25/05:00pm 29.0 ENE 6 7 1002.8 - 0.8 - Partly cloudy 10 - - - -
25/04:30pm 28.6 ENE 6 7 1002.8 - 0.4 - Partly cloudy 10 - - - -
25/04:00pm 30.0 ENE 7 11 1002.5 - 0.0 - - 10 - - - -
25/03:30pm 30.7 ENE 8 11 1002.4 - 0.0 - - 10 - - - -
25/03:00pm 30.1 ENE 9 12 1002.4 - 0.0 - - 10 - - - -
25/02:30pm 30.1 ENE 11 13 1002.4 - 0.0 - - 10 - - - -
25/02:00pm 30.6 ENE 9 13 1002.4 - 0.0 - - 10 - - - -
25/01:30pm 31.1 E 8 11 1002.6 - 0.0 - - 10 - - - -
25/01:00pm 30.4 ENE 9 11 1002.7 - 0.0 - - 10 - - - -
25/12:30pm 29.6 ENE 10 13 1002.9 - 0.0 - - 10 - - - -
25/12:00pm 30.2 ENE 10 12 1003.2 - 0.0 - - 10 - - - -
25/11:30am 31.0 ENE 6 10 1003.4 - 0.0 - - 10 - - - -
25/11:00am 30.0 NNW 5 7 1003.5 - 0.0 - - 10 - - - -
25/10:30am 29.3 NNE 3 6 1003.5 - 0.0 - - 10 - - - -
25/10:00am 28.1 NW 3 6 1003.5 - 0.0 - - 10 - - - -
25/09:30am 27.5 NNW 3 7 1003.6 - 0.0 - - 10 - - - -
25/09:00am 26.6 NNE 4 6 1003.8 - 0.0 - - 10 - - - -
25/08:30am 25.7 N 2 6 1003.9 - 0.0 - - 10 - - - -
25/08:00am 24.6 CALM 0 0 1003.9 - 0.0 - - 10 - - - -
25/07:30am 23.4 CALM 0 0 1003.6 - 0.0 - - 10 - - - -
25/07:00am 22.8 CALM 0 0 1003.4 - 0.0 - - 10 - - - -
25/06:30am 22.3 CALM 0 0 1003.3 - 0.0 - - 10 - - - -
25/06:00am 21.9 NW 3 4 1003.1 - 0.0 - Mostly clear 10 - - - -
25/05:30am 22.5 NNE 5 6 1002.7 - 0.0 - - 10 - - - -
25/05:00am 22.6 N 5 6 1002.8 - 0.0 - - 10 - - - -
25/04:30am 22.5 NW 5 6 1003.3 - 0.0 - - 10 - - - -
25/04:00am 23.1 NW 3 3 1003.3 - 0.0 - - 10 - - - -
25/03:30am 23.5 NW 3 5 1003.9 - 0.0 - Partly cloudy 10 - - - -
25/03:00am 23.5 W 3 4 1004.2 - 0.0 - Mostly cloudy 10 - - - -
25/02:30am 23.5 W 4 5 1004.5 - 0.0 - Cloudy 10 - - - -
25/02:00am 23.4 W 3 5 1004.6 - 0.0 - Partly cloudy 10 - - - -
25/01:30am 23.9 CALM 0 0 1004.9 - 0.0 - Cloudy 10 - - - -
25/01:00am 23.9 CALM 0 0 1005.3 - 0.0 - Cloudy 10 - - - -
25/12:30am 23.8 NNW 3 4 1005.3 - 0.0 - Cloudy 10 - - - -
25/12:00am 24.0 NW 3 5 1005.7 - 0.0 - Cloudy 10 - - - -
 
Date/Time
EDT
Temp

°C
Wind Pressure Rain
since 9am
mm
Weather Cloud Vis
km
Sea
Height
m
Swell
Dir
 
Speed
knots
Gust
knots
hPa Trend Height
m
Period
s
Dir
24/11:30pm 24.2 N 1 3 1005.6 - 0.0 - Cloudy 10 - - - -
24/11:00pm 23.6 CALM 0 0 1005.7 - 0.0 - Cloudy 10 - - - -
24/10:30pm 23.5 CALM 0 0 1005.9 - 0.0 - Cloudy 10 - - - -
24/10:00pm 23.6 CALM 0 0 1005.9 - 0.0 - Partly cloudy 10 - - - -
24/09:30pm 23.6 N 2 4 1005.7 - 0.0 - - 10 - - - -
24/09:00pm 24.3 N 3 4 1005.3 - 0.0 - - 10 - - - -
24/08:30pm 24.9 NNE 4 5 1005.1 - 0.0 - Partly cloudy 10 - - - -
24/08:00pm 25.4 NE 5 6 1004.9 - 0.0 - - 10 - - - -
24/07:30pm 26.0 ENE 6 8 1004.2 - 0.0 - - 10 - - - -
24/07:00pm 26.1 ENE 9 11 1004.1 - 0.0 - - 10 - - - -
24/06:30pm 26.7 NE 8 10 1004.1 - 0.0 - - 10 - - - -
24/06:00pm 26.8 ENE 9 12 1004.3 - 0.0 - - 10 - - - -
24/05:30pm 27.2 ENE 10 13 1004.3 - 0.0 - - 10 - - - -
24/05:00pm 27.0 ENE 11 14 1004.6 - 0.0 - - 10 - - - -
24/04:30pm 27.2 ENE 11 14 1005.1 - 0.0 - - 10 - - - -
24/04:00pm 27.4 ENE 12 15 1005.3 - 0.0 - - 10 - - - -
24/03:30pm 27.8 ENE 10 13 1005.8 - 0.0 - - 10 - - - -
24/03:00pm 27.5 ENE 11 14 1006.2 - 0.0 - - 10 - - - -
24/02:30pm 27.4 ENE 11 14 1006.4 - 0.0 - - 10 - - - -
24/02:00pm 27.8 ENE 10 12 1006.4 - 0.0 - - 10 - - - -
24/01:30pm 28.3 NE 9 12 1006.8 - 0.0 - - 10 - - - -
24/01:00pm 28.2 NNE 7 11 1006.9 - 0.0 - - 10 - - - -
24/12:30pm 28.4 ENE 5 9 1007.3 - 0.0 - - 10 - - - -
24/12:00pm 27.3 NNE 7 9 1007.6 - 0.0 - Mostly clear 10 - - - -
24/11:30am 27.4 ENE 7 10 1008.0 - 0.0 - Partly cloudy 10 - - - -
24/11:00am 26.2 NNE 6 8 1008.1 - 0.0 - Partly cloudy 10 - - - -
24/10:30am 25.7 N 2 10 1008.2 - 0.0 - Partly cloudy 10 - - - -
24/10:00am 25.5 NNW 3 5 1008.3 - 0.0 - Partly cloudy 10 - - - -
24/09:30am 23.9 NNE 4 6 1008.7 - 0.0 - Partly cloudy 10 - - - -
24/09:00am 22.9 NNE 2 5 1008.7 - 1.2 - Cloudy 10 - - - -
24/08:30am 22.1 CALM 0 0 1008.4 - 1.2 - - 10 - - - -
24/08:00am 22.0 W 3 5 1008.3 - 1.2 - - 10 - - - -
24/07:30am 21.4 CALM 0 0 1008.2 - 1.2 - - 10 - - - -
24/07:00am 21.1 CALM 0 0 1007.9 - 1.2 - - 10 - - - -
24/06:30am 20.5 CALM 0 0 1007.7 - 1.2 - - 10 - - - -
24/06:24am 20.5 CALM 0 0 1007.7 - 1.2 - - 10 - - - -
24/06:12am 20.6 CALM 0 0 1007.6 - 1.2 - - 5 - - - -
24/06:08am 20.7 CALM 0 0 1007.6 - 1.2 - - 9 - - - -
24/06:00am 20.3 CALM 0 0 1007.6 - 1.2 - - 7 - - - -
24/05:50am 20.3 CALM 0 0 1007.4 - 1.2 - - 5 - - - -
24/05:30am 20.7 CALM 0 0 1007.1 - 1.2 - - 10 - - - -
24/05:00am 21.4 CALM 0 0 1007.0 - 1.2 - - 10 - - - -
24/04:30am 21.4 CALM 0 0 1007.0 - 1.2 - - 10 - - - -
24/04:00am 21.5 CALM 0 0 1007.1 - 1.2 - - 10 - - - -
24/03:30am 21.4 CALM 0 0 1007.2 - 1.2 - - 10 - - - -
24/03:00am 21.7 CALM 0 0 1007.4 - 1.2 - Cloudy 10 - - - -
24/02:30am 21.7 CALM 0 0 1007.5 - 1.2 - Partly cloudy 10 - - - -
24/02:00am 21.9 CALM 0 0 1007.9 - 1.2 - Partly cloudy 10 - - - -
24/01:30am 21.8 CALM 0 0 1008.3 - 1.2 - Partly cloudy 10 - - - -
24/01:00am 21.9 CALM 0 0 1008.7 - 1.2 - Partly cloudy 10 - - - -
24/12:30am 21.9 CALM 0 0 1008.8 - 1.2 - Partly cloudy 10 - - - -
24/12:00am 22.0 CALM 0 0 1008.7 - 1.2 - Mostly cloudy 10 - - - -
 
Date/Time
EDT
Temp

°C
Wind Pressure Rain
since 9am
mm
Weather Cloud Vis
km
Sea
Height
m
Swell
Dir
 
Speed
knots
Gust
knots
hPa Trend Height
m
Period
s
Dir
23/11:30pm 22.0 CALM 0 0 1008.9 - 1.2 - - 10 - - - -
23/11:00pm 22.3 NE 1 4 1008.9 - 1.2 - - 10 - - - -
23/10:30pm 22.2 N 3 4 1009.1 - 1.2 - Partly cloudy 10 - - - -
23/10:00pm 22.8 CALM 0 0 1009.1 - 1.2 - - 10 - - - -
23/09:30pm 23.2 CALM 0 0 1008.9 - 1.2 - Partly cloudy 10 - - - -
23/09:00pm 23.4 N 2 3 1008.8 - 1.2 - Cloudy 10 - - - -
23/08:30pm 23.7 N 3 4 1008.7 - 1.2 - Partly cloudy 10 - - - -
23/08:00pm 24.0 N 4 5 1008.6 - 1.2 - Partly cloudy 10 - - - -
23/07:30pm 24.3 NNE 5 7 1008.3 - 1.2 - - 10 - - - -
23/07:00pm 24.7 N 7 8 1008.3 - 1.2 - - 10 - - - -
23/06:30pm 25.0 NNE 6 8 1008.1 - 1.2 - - 10 - - - -
23/06:00pm 25.2 NNE 7 10 1008.1 - 1.2 - - 10 - - - -
23/05:30pm 25.4 NNE 7 10 1008.3 - 1.2 - - 10 - - - -

Other Formats:

Comma delimited format used in spreadsheet applications
http://www.bom.gov.au/fwo/IDN60701/IDN60701.94786.axf

JavaScript Object Notation format (JSON) in row-major order
http://www.bom.gov.au/fwo/IDN60701/IDN60701.94786.json